createdAt,value
2018-12-15T00:00:03.837Z,21.27
2018-12-15T00:02:36.705Z,20.13
2018-12-15T00:05:10.070Z,21.73
2018-12-15T00:07:43.107Z,21.10
2018-12-15T00:10:16.233Z,21.97
2018-12-15T00:12:53.426Z,21.33
2018-12-15T00:15:26.653Z,21.80
2018-12-15T00:18:00.037Z,22.43
2018-12-15T00:20:33.282Z,21.60
2018-12-15T00:23:09.762Z,20.73
2018-12-15T00:25:43.013Z,21.13
2018-12-15T00:28:16.084Z,22.20
2018-12-15T00:30:49.441Z,21.87
2018-12-15T00:33:22.919Z,21.97
2018-12-15T00:35:56.086Z,21.87
2018-12-15T00:38:29.215Z,22.60
2018-12-15T00:41:06.372Z,23.33
2018-12-15T00:43:39.611Z,23.57
2018-12-15T00:46:12.775Z,22.40
2018-12-15T00:48:49.275Z,23.60
2018-12-15T00:51:22.587Z,21.53
2018-12-15T00:53:55.707Z,23.37
2018-12-15T00:56:28.729Z,23.40
2018-12-15T00:59:01.189Z,22.57
2018-12-15T01:01:34.139Z,23.00
2018-12-15T01:04:07.693Z,22.83
2018-12-15T01:06:44.505Z,21.40
2018-12-15T01:09:17.715Z,21.60
2018-12-15T01:11:51.058Z,22.87
2018-12-15T01:14:24.033Z,22.97
2018-12-15T01:16:57.199Z,21.90
2018-12-15T01:19:30.538Z,22.73
2018-12-15T01:22:03.568Z,22.37
2018-12-15T01:24:36.746Z,21.10
2018-12-15T01:27:09.728Z,21.47
2018-12-15T01:29:42.947Z,21.43
2018-12-15T01:32:19.454Z,21.87
2018-12-15T01:34:52.597Z,22.57
2018-12-15T01:37:25.655Z,22.03
2018-12-15T01:40:02.730Z,22.00
2018-12-15T01:42:40.058Z,23.83
2018-12-15T01:45:13.109Z,20.53
2018-12-15T01:47:45.786Z,22.90
2018-12-15T01:50:22.289Z,22.73
2018-12-15T01:52:55.551Z,22.13
2018-12-15T01:55:32.706Z,22.37
2018-12-15T01:58:05.073Z,22.20
2018-12-15T02:00:38.078Z,23.57
2018-12-15T02:03:11.374Z,22.13
2018-12-15T02:05:44.239Z,23.10
2018-12-15T02:08:16.518Z,24.30
2018-12-15T02:10:49.502Z,22.93
2018-12-15T02:13:25.866Z,23.43
2018-12-15T02:15:58.085Z,21.70
2018-12-15T02:18:34.486Z,23.17
2018-12-15T02:21:07.578Z,22.03
2018-12-15T02:23:40.666Z,23.70
2018-12-15T02:26:16.903Z,22.57
2018-12-15T02:28:49.302Z,22.80
2018-12-15T02:31:21.488Z,23.57
2018-12-15T02:33:54.606Z,23.27
2018-12-15T02:36:27.039Z,25.90
2018-12-15T02:39:01.178Z,23.80
2018-12-15T02:41:34.157Z,24.10
2018-12-15T02:44:11.222Z,23.53
2018-12-15T02:46:44.182Z,22.33
2018-12-15T02:49:16.744Z,24.60
2018-12-15T02:51:49.668Z,22.80
2018-12-15T02:54:22.411Z,22.93
2018-12-15T02:56:58.688Z,23.17
2018-12-15T02:59:31.765Z,22.93
2018-12-15T03:02:04.969Z,21.67
2018-12-15T03:04:37.308Z,21.50
2018-12-15T03:07:09.605Z,20.70
2018-12-15T03:09:46.681Z,22.33
2018-12-15T03:12:23.116Z,21.33
2018-12-15T03:14:59.526Z,22.03
2018-12-15T03:17:32.443Z,22.60
2018-12-15T03:20:08.666Z,22.10
2018-12-15T03:22:44.962Z,22.50
2018-12-15T03:25:17.206Z,21.67
2018-12-15T03:27:49.518Z,21.60
2018-12-15T03:30:22.466Z,21.30
2018-12-15T03:32:54.706Z,22.50
2018-12-15T03:35:27.851Z,23.40
2018-12-15T03:38:00.866Z,22.73
2018-12-15T03:40:33.921Z,21.97
2018-12-15T03:43:06.974Z,22.30
2018-12-15T03:45:39.174Z,22.20
2018-12-15T03:48:11.470Z,21.37
2018-12-15T03:50:44.415Z,22.13
2018-12-15T03:53:17.418Z,21.57
2018-12-15T03:55:50.434Z,23.13
2018-12-15T03:58:27.615Z,22.63
2018-12-15T04:01:03.840Z,22.67
2018-12-15T04:03:36.954Z,22.17
2018-12-15T04:06:10.311Z,21.60
2018-12-15T04:08:43.658Z,21.80
2018-12-15T04:11:16.603Z,22.77
2018-12-15T04:13:49.663Z,22.60
2018-12-15T04:16:22.976Z,20.97
2018-12-15T04:18:57.200Z,22.70
2018-12-15T04:21:30.490Z,21.67
2018-12-15T04:24:06.862Z,21.93
2018-12-15T04:26:40.084Z,22.67
2018-12-15T04:29:13.659Z,21.67
2018-12-15T04:31:46.529Z,22.53
2018-12-15T04:34:19.844Z,22.97
2018-12-15T04:36:53.241Z,22.50
2018-12-15T04:39:26.473Z,23.50
2018-12-15T04:41:59.538Z,22.63
2018-12-15T04:44:32.540Z,23.93
2018-12-15T04:47:06.300Z,22.83
2018-12-15T04:49:39.224Z,22.60
2018-12-15T04:52:12.381Z,23.57
2018-12-15T04:54:45.479Z,22.67
2018-12-15T04:57:18.682Z,22.37
2018-12-15T04:59:51.742Z,21.77
2018-12-15T05:02:25.082Z,22.30
2018-12-15T05:04:58.383Z,21.17
2018-12-15T05:07:31.929Z,21.20
2018-12-15T05:10:05.511Z,21.70
2018-12-15T05:12:38.178Z,22.27
2018-12-15T05:15:15.442Z,20.80
2018-12-15T05:17:48.711Z,21.17
2018-12-15T05:20:21.901Z,21.27
2018-12-15T05:22:54.694Z,20.70
2018-12-15T05:25:27.819Z,21.13
2018-12-15T05:28:01.057Z,23.10
2018-12-15T05:30:34.247Z,22.70
2018-12-15T05:33:07.493Z,22.33
2018-12-15T05:35:40.154Z,22.03
2018-12-15T05:38:13.459Z,22.27
2018-12-15T05:40:46.662Z,21.73
2018-12-15T05:43:19.882Z,24.33
2018-12-15T05:45:57.176Z,22.40
2018-12-15T05:48:30.419Z,23.47
2018-12-15T05:51:03.866Z,23.83
2018-12-15T05:53:36.895Z,21.97
2018-12-15T05:56:09.740Z,23.53
2018-12-15T05:58:43.114Z,23.70
2018-12-15T06:01:16.187Z,23.67
2018-12-15T06:03:49.343Z,23.83
2018-12-15T06:06:22.521Z,24.57
2018-12-15T06:08:55.638Z,24.57
2018-12-15T06:11:28.763Z,25.07
2018-12-15T06:14:06.058Z,25.43
2018-12-15T06:16:38.858Z,23.07
2018-12-15T06:19:12.082Z,24.17
2018-12-15T06:21:45.270Z,24.97
2018-12-15T06:24:18.311Z,23.43
2018-12-15T06:26:51.381Z,23.90
2018-12-15T06:29:28.450Z,24.30
2018-12-15T06:32:01.706Z,23.67
2018-12-15T06:34:34.656Z,23.77
2018-12-15T06:37:07.845Z,23.40
2018-12-15T06:39:45.111Z,25.30
2018-12-15T06:42:18.206Z,24.27
2018-12-15T06:44:51.278Z,23.67
2018-12-15T06:47:24.815Z,23.70
2018-12-15T06:49:58.016Z,24.03
2018-12-15T06:52:35.499Z,23.00
2018-12-15T06:55:08.513Z,24.20
2018-12-15T06:57:45.580Z,24.00
2018-12-15T07:00:22.613Z,25.27
2018-12-15T07:02:55.868Z,24.17
2018-12-15T07:05:28.850Z,22.93
2018-12-15T07:08:01.977Z,24.23
2018-12-15T07:10:34.208Z,24.10
2018-12-15T07:13:10.641Z,25.43
2018-12-15T07:15:43.471Z,26.00
2018-12-15T07:18:19.791Z,25.53
2018-12-15T07:20:52.713Z,26.30
2018-12-15T07:23:25.809Z,26.50
2018-12-15T07:25:59.408Z,25.87
2018-12-15T07:28:32.856Z,24.77
2018-12-15T07:31:05.979Z,25.63
2018-12-15T07:33:39.094Z,26.43
2018-12-15T07:36:12.049Z,26.33
2018-12-15T07:38:45.392Z,25.63
2018-12-15T07:41:19.122Z,27.43
2018-12-15T07:43:53.135Z,25.00
2018-12-15T07:46:26.720Z,26.17
2018-12-15T07:49:03.759Z,26.23
2018-12-15T07:51:37.226Z,25.97
2018-12-15T07:54:14.497Z,24.37
2018-12-15T07:56:52.804Z,25.60
2018-12-15T07:59:27.025Z,27.07
2018-12-15T08:02:01.444Z,26.50
2018-12-15T08:04:35.476Z,26.67
2018-12-15T08:07:09.864Z,25.53
2018-12-15T08:09:43.944Z,25.77
2018-12-15T08:12:47.685Z,27.80
2018-12-15T08:15:22.225Z,27.30
2018-12-15T08:18:01.356Z,27.33
2018-12-15T08:20:35.400Z,25.83
2018-12-15T08:23:13.109Z,26.70
2018-12-15T08:25:47.650Z,27.00
2018-12-15T08:28:22.242Z,28.70
2018-12-15T08:30:56.612Z,25.83
2018-12-15T08:33:34.798Z,26.20
2018-12-15T08:36:11.491Z,26.10
2018-12-15T08:38:44.586Z,27.83
2018-12-15T08:41:18.111Z,27.83
2018-12-15T08:43:55.174Z,28.67
2018-12-15T08:46:32.630Z,28.07
2018-12-15T08:49:05.530Z,29.23
2018-12-15T08:51:38.370Z,29.53
2018-12-15T08:54:12.552Z,31.47
2018-12-15T08:56:47.335Z,29.70
2018-12-15T08:59:20.387Z,30.90
2018-12-15T09:01:57.303Z,31.90
2018-12-15T09:04:30.410Z,31.27
2018-12-15T09:07:03.556Z,30.07
2018-12-15T09:09:36.822Z,28.90
2018-12-15T09:12:09.984Z,30.00
2018-12-15T09:14:43.063Z,27.83
2018-12-15T09:17:16.428Z,30.43
2018-12-15T09:19:49.658Z,29.63
2018-12-15T09:22:22.852Z,27.07
2018-12-15T09:24:55.768Z,28.67
2018-12-15T09:27:28.681Z,30.20
2018-12-15T09:30:01.681Z,30.67
2018-12-15T09:32:34.725Z,28.40
2018-12-15T09:35:11.799Z,27.67
2018-12-15T09:37:44.842Z,27.93
2018-12-15T09:40:18.047Z,28.67
2018-12-15T09:42:51.227Z,26.53
2018-12-15T09:45:24.518Z,28.90
2018-12-15T09:48:01.730Z,28.23
2018-12-15T09:50:34.542Z,29.63
2018-12-15T09:53:11.694Z,29.53
2018-12-15T09:55:45.014Z,28.50
2018-12-15T09:58:21.984Z,29.77
2018-12-15T10:00:55.145Z,29.37
2018-12-15T10:03:28.103Z,27.47
2018-12-15T10:06:01.423Z,29.17
2018-12-15T10:08:34.726Z,31.43
2018-12-15T10:11:07.903Z,28.67
2018-12-15T10:13:45.012Z,27.77
2018-12-15T10:16:18.076Z,27.67
2018-12-15T10:18:55.415Z,28.50
2018-12-15T10:21:32.195Z,28.47
2018-12-15T10:24:05.502Z,28.80
2018-12-15T10:26:38.667Z,29.33
2018-12-15T10:29:16.493Z,30.03
2018-12-15T10:31:58.281Z,28.47
2018-12-15T10:34:35.254Z,27.67
2018-12-15T10:37:12.420Z,30.50
2018-12-15T10:39:45.515Z,27.43
2018-12-15T10:42:18.551Z,26.80
2018-12-15T10:44:56.011Z,27.03
2018-12-15T10:47:33.312Z,28.33
2018-12-15T10:50:11.684Z,26.27
2018-12-15T10:52:48.330Z,26.23
2018-12-15T10:55:21.699Z,26.40
2018-12-15T10:57:55.252Z,27.80
2018-12-15T11:00:34.090Z,26.57
2018-12-15T11:03:07.327Z,26.60
2018-12-15T11:05:44.378Z,24.60
2018-12-15T11:08:21.613Z,26.60
2018-12-15T11:10:54.450Z,26.63
2018-12-15T11:13:31.536Z,25.10
2018-12-15T11:16:05.013Z,27.20
2018-12-15T11:18:41.937Z,26.13
2018-12-15T11:21:19.026Z,26.60
2018-12-15T11:23:52.129Z,26.83
2018-12-15T11:26:25.504Z,26.10
2018-12-15T11:29:02.593Z,26.63
2018-12-15T11:31:39.907Z,29.23
2018-12-15T11:34:13.102Z,37.33
2018-12-15T11:36:45.695Z,25.87
2018-12-15T11:39:19.045Z,26.17
2018-12-15T11:41:56.184Z,27.40
2018-12-15T11:44:33.914Z,26.53
2018-12-15T11:47:07.509Z,27.30
2018-12-15T11:49:44.404Z,29.03
2018-12-15T11:52:17.400Z,27.73
2018-12-15T11:54:50.224Z,28.03
2018-12-15T11:57:23.524Z,27.37
2018-12-15T11:59:55.795Z,26.93
2018-12-15T12:02:31.826Z,28.80
2018-12-15T12:05:03.979Z,27.53
2018-12-15T12:07:40.789Z,27.90
2018-12-15T12:10:13.576Z,26.00
2018-12-15T12:12:46.446Z,28.13
2018-12-15T12:15:19.490Z,27.30
2018-12-15T12:17:52.554Z,28.20
2018-12-15T12:20:25.323Z,27.63
2018-12-15T12:22:58.618Z,27.80
2018-12-15T12:25:31.500Z,27.90
2018-12-15T12:28:04.650Z,27.77
2018-12-15T12:30:41.849Z,27.33
2018-12-15T12:33:14.862Z,26.73
2018-12-15T12:35:47.994Z,27.53
2018-12-15T12:38:21.284Z,25.57
2018-12-15T12:40:54.431Z,27.63
2018-12-15T12:43:27.514Z,70.73
2018-12-15T12:46:00.679Z,29.70
2018-12-15T12:48:33.968Z,27.00
2018-12-15T12:51:07.451Z,26.30
2018-12-15T12:53:40.471Z,24.70
2018-12-15T12:56:14.128Z,24.80
2018-12-15T12:58:47.159Z,25.97
2018-12-15T13:01:20.359Z,24.70
2018-12-15T13:03:53.541Z,25.37
2018-12-15T13:06:29.829Z,23.63
2018-12-15T13:09:02.968Z,24.63
2018-12-15T13:11:40.238Z,24.47
2018-12-15T13:14:17.387Z,25.07
2018-12-15T13:16:50.574Z,24.17
2018-12-15T13:19:23.761Z,23.67
2018-12-15T13:21:56.763Z,24.77
2018-12-15T13:24:29.846Z,24.00
2018-12-15T13:27:02.946Z,23.17
2018-12-15T13:29:36.128Z,25.37
2018-12-15T13:32:09.121Z,23.83
2018-12-15T13:34:42.459Z,24.83
2018-12-15T13:37:15.796Z,24.90
2018-12-15T13:39:48.126Z,24.30
2018-12-15T13:42:20.605Z,25.00
2018-12-15T13:44:57.649Z,22.57
2018-12-15T13:47:34.957Z,23.30
2018-12-15T13:50:12.319Z,24.37
2018-12-15T13:52:45.594Z,23.53
2018-12-15T13:55:18.723Z,23.50
2018-12-15T13:57:51.778Z,24.07
2018-12-15T14:00:24.855Z,23.23
2018-12-15T14:02:58.050Z,24.43
2018-12-15T14:05:30.591Z,23.80
2018-12-15T14:08:03.435Z,23.70
2018-12-15T14:10:40.537Z,22.70
2018-12-15T14:13:16.898Z,23.80
2018-12-15T14:15:53.453Z,23.60
2018-12-15T14:18:26.852Z,23.73
2018-12-15T14:21:03.786Z,22.70
2018-12-15T14:23:36.921Z,23.53
2018-12-15T14:26:14.130Z,24.40
2018-12-15T14:28:48.446Z,23.87
2018-12-15T14:31:25.610Z,24.40
2018-12-15T14:34:02.770Z,23.07
2018-12-15T14:36:35.881Z,23.97
2018-12-15T14:39:09.059Z,24.03
2018-12-15T14:41:42.154Z,25.10
2018-12-15T14:44:15.250Z,23.97
2018-12-15T14:46:47.698Z,23.20
2018-12-15T14:49:20.986Z,24.17
2018-12-15T14:51:57.378Z,23.97
2018-12-15T14:54:30.346Z,24.13
2018-12-15T14:57:02.760Z,24.30
2018-12-15T14:59:39.911Z,25.50
2018-12-15T15:02:13.084Z,24.07
2018-12-15T15:04:46.166Z,24.87
2018-12-15T15:07:22.586Z,22.97
2018-12-15T15:09:54.966Z,23.53
2018-12-15T15:12:28.218Z,25.23
2018-12-15T15:15:01.435Z,23.50
2018-12-15T15:17:35.442Z,22.83
2018-12-15T15:20:10.214Z,23.77
2018-12-15T15:22:46.584Z,23.13
2018-12-15T15:25:23.150Z,24.27
2018-12-15T15:27:56.295Z,24.17
2018-12-15T15:30:29.251Z,23.37
2018-12-15T15:33:02.373Z,23.07
2018-12-15T15:35:35.524Z,23.70
2018-12-15T15:38:08.867Z,24.03
2018-12-15T15:40:41.718Z,25.00
2018-12-15T15:43:14.098Z,24.73
2018-12-15T15:45:46.386Z,24.13
2018-12-15T15:48:18.807Z,24.63
2018-12-15T15:50:51.166Z,23.97
2018-12-15T15:53:24.020Z,23.53
2018-12-15T15:56:01.278Z,23.83
2018-12-15T15:58:34.570Z,25.33
2018-12-15T16:01:07.322Z,24.60
2018-12-15T16:03:44.472Z,24.93
2018-12-15T16:06:17.546Z,23.93
2018-12-15T16:08:50.925Z,24.17
2018-12-15T16:11:24.216Z,24.30
2018-12-15T16:13:57.695Z,23.30
2018-12-15T16:16:34.364Z,24.07
2018-12-15T16:19:11.461Z,24.03
2018-12-15T16:21:44.140Z,24.37
2018-12-15T16:24:21.582Z,23.37
2018-12-15T16:26:54.651Z,23.10
2018-12-15T16:29:28.045Z,24.33
2018-12-15T16:32:01.566Z,25.00
2018-12-15T16:34:34.402Z,24.53
2018-12-15T16:37:07.783Z,24.77
2018-12-15T16:39:45.009Z,25.17
2018-12-15T16:42:18.245Z,24.17
2018-12-15T16:44:55.462Z,25.20
2018-12-15T16:47:28.982Z,23.63
2018-12-15T16:50:01.919Z,25.63
2018-12-15T16:52:35.245Z,25.23
2018-12-15T16:55:08.488Z,26.80
2018-12-15T16:57:45.984Z,27.10
2018-12-15T17:00:19.360Z,27.37
2018-12-15T17:02:56.381Z,26.93
2018-12-15T17:05:29.880Z,28.30
2018-12-15T17:08:02.651Z,27.77
2018-12-15T17:10:35.892Z,26.20
2018-12-15T17:13:08.828Z,23.37
2018-12-15T17:15:46.170Z,25.33
2018-12-15T17:18:19.198Z,26.57
2018-12-15T17:20:56.870Z,25.03
2018-12-15T17:23:29.805Z,23.10
2018-12-15T17:26:02.912Z,24.03
2018-12-15T17:28:35.895Z,23.83
2018-12-15T17:31:09.547Z,22.87
2018-12-15T17:33:46.107Z,25.43
2018-12-15T17:36:23.084Z,24.77
2018-12-15T17:38:57.083Z,24.67
2018-12-15T17:41:30.190Z,22.07
2018-12-15T17:44:07.231Z,20.30
2018-12-15T17:46:40.385Z,26.23
2018-12-15T17:49:17.637Z,25.43
2018-12-15T17:51:51.109Z,23.63
2018-12-15T17:54:24.354Z,22.03
2018-12-15T17:57:01.336Z,23.37
2018-12-15T17:59:38.673Z,22.13
2018-12-15T18:02:11.794Z,24.43
2018-12-15T18:04:45.182Z,23.83
2018-12-15T18:07:19.170Z,24.27
2018-12-15T18:09:52.477Z,23.57
2018-12-15T18:12:25.414Z,25.47
2018-12-15T18:15:02.590Z,24.17
2018-12-15T18:17:39.920Z,25.57
2018-12-15T18:20:13.026Z,25.67
2018-12-15T18:22:46.163Z,26.30
2018-12-15T18:25:23.082Z,25.53
2018-12-15T18:27:56.139Z,25.53
2018-12-15T18:30:29.516Z,25.43
2018-12-15T18:33:06.714Z,25.37
2018-12-15T18:35:39.670Z,26.37
2018-12-15T18:38:12.664Z,25.17
2018-12-15T18:40:46.068Z,25.20
2018-12-15T18:43:19.198Z,27.60
2018-12-15T18:45:56.412Z,30.00
2018-12-15T18:48:30.056Z,26.43
2018-12-15T18:51:03.369Z,30.23
2018-12-15T18:53:36.050Z,33.97
2018-12-15T18:56:09.468Z,37.10
2018-12-15T18:58:42.466Z,34.73
2018-12-15T19:01:15.833Z,32.03
2018-12-15T19:03:53.038Z,29.83
2018-12-15T19:06:30.226Z,29.30
2018-12-15T19:09:06.359Z,23.23
2018-12-15T19:11:39.482Z,22.43
2018-12-15T19:14:12.700Z,22.70
2018-12-15T19:16:45.806Z,23.67
2018-12-15T19:19:18.166Z,25.50
2018-12-15T19:21:51.238Z,26.50
2018-12-15T19:24:23.517Z,25.80
2018-12-15T19:26:55.974Z,24.03
2018-12-15T19:29:29.111Z,24.20
2018-12-15T19:32:05.426Z,22.67
2018-12-15T19:34:38.617Z,23.80
2018-12-15T19:37:11.579Z,25.57
2018-12-15T19:39:48.718Z,25.67
2018-12-15T19:42:25.040Z,26.27
2018-12-15T19:44:58.283Z,25.10
2018-12-15T19:47:31.630Z,23.80
2018-12-15T19:50:04.960Z,25.07
2018-12-15T19:52:37.749Z,27.53
2018-12-15T19:55:10.851Z,38.77
2018-12-15T19:57:44.022Z,30.90
2018-12-15T20:00:17.194Z,41.87
2018-12-15T20:02:50.414Z,36.57
2018-12-15T20:05:23.673Z,56.73
2018-12-15T20:07:56.898Z,51.40
2018-12-15T20:10:34.006Z,39.77
2018-12-15T20:13:10.257Z,54.97
2018-12-15T20:15:47.336Z,57.63
2018-12-15T20:18:20.590Z,43.17
2018-12-15T20:20:53.541Z,46.63
2018-12-15T20:23:25.950Z,45.13
2018-12-15T20:25:59.027Z,34.53
2018-12-15T20:28:32.315Z,30.67
2018-12-15T20:31:08.720Z,29.07
2018-12-15T20:33:41.807Z,28.83
2018-12-15T20:36:15.027Z,29.90
2018-12-15T20:38:52.008Z,30.63
2018-12-15T20:41:28.867Z,28.13
2018-12-15T20:44:05.237Z,30.13
2018-12-15T20:46:38.402Z,31.73
2018-12-15T20:49:11.615Z,31.07
2018-12-15T20:51:48.752Z,31.13
2018-12-15T20:54:25.718Z,30.83
2018-12-15T20:56:58.899Z,29.90
2018-12-15T20:59:31.758Z,31.33
2018-12-15T21:02:04.987Z,34.03
2018-12-15T21:04:37.938Z,35.43
2018-12-15T21:07:14.291Z,35.33
2018-12-15T21:09:47.296Z,34.77
2018-12-15T21:12:23.554Z,36.33
2018-12-15T21:14:59.410Z,35.13
2018-12-15T21:17:36.374Z,36.17
2018-12-15T21:20:10.490Z,38.23
2018-12-15T21:22:47.346Z,38.27
2018-12-15T21:25:19.738Z,36.87
2018-12-15T21:27:53.016Z,38.33
2018-12-15T21:30:26.394Z,38.53
2018-12-15T21:32:59.485Z,39.60
2018-12-15T21:35:36.673Z,37.60
2018-12-15T21:38:09.406Z,37.83
2018-12-15T21:40:46.891Z,38.97
2018-12-15T21:43:19.756Z,37.07
2018-12-15T21:45:52.845Z,47.10
2018-12-15T21:48:26.311Z,38.73
2018-12-15T21:51:03.395Z,36.80
2018-12-15T21:53:36.758Z,36.43
2018-12-15T21:56:13.184Z,35.97
2018-12-15T21:58:46.527Z,35.50
2018-12-15T22:01:23.518Z,37.60
2018-12-15T22:03:57.557Z,38.80
2018-12-15T22:06:30.842Z,38.43
2018-12-15T22:09:08.495Z,38.43
2018-12-15T22:11:44.887Z,38.13
2018-12-15T22:14:17.899Z,53.70
2018-12-15T22:16:51.026Z,41.73
2018-12-15T22:19:24.126Z,36.43
2018-12-15T22:22:02.799Z,37.67
2018-12-15T22:24:32.051Z,37.07
2018-12-15T22:27:09.142Z,37.23
2018-12-15T22:29:41.935Z,38.63
2018-12-15T22:32:14.950Z,39.60
2018-12-15T22:34:47.215Z,37.87
2018-12-15T22:37:20.528Z,39.80
2018-12-15T22:39:53.401Z,40.30
2018-12-15T22:42:25.664Z,38.37
2018-12-15T22:44:58.765Z,39.20
2018-12-15T22:47:31.884Z,40.07
2018-12-15T22:50:09.644Z,39.50
2018-12-15T22:52:42.403Z,37.77
2018-12-15T22:55:15.410Z,38.00
2018-12-15T22:57:48.347Z,35.73
2018-12-15T23:00:21.338Z,37.83
2018-12-15T23:02:54.383Z,38.00
2018-12-15T23:05:27.413Z,40.03
2018-12-15T23:08:03.926Z,41.23
2018-12-15T23:10:40.351Z,38.70
2018-12-15T23:13:16.595Z,42.27
2018-12-15T23:15:52.862Z,42.57
2018-12-15T23:18:29.975Z,45.53
2018-12-15T23:21:06.174Z,44.67
2018-12-15T23:23:39.170Z,43.27
2018-12-15T23:26:12.279Z,40.03
2018-12-15T23:28:45.183Z,39.67
2018-12-15T23:31:18.172Z,40.50
2018-12-15T23:33:51.137Z,39.03
2018-12-15T23:36:24.358Z,41.10
2018-12-15T23:39:01.905Z,38.80
2018-12-15T23:41:34.662Z,38.47
2018-12-15T23:44:11.797Z,40.57
2018-12-15T23:46:48.938Z,42.17
2018-12-15T23:49:22.286Z,41.47
2018-12-15T23:51:59.113Z,42.93
2018-12-15T23:54:32.405Z,43.13
2018-12-15T23:57:05.471Z,43.43
2018-12-15T23:59:38.620Z,40.87
